createdAt,value
2019-02-06T00:02:05.444Z,3.20
2019-02-06T00:04:07.084Z,3.20
2019-02-06T00:06:08.949Z,3.20
2019-02-06T00:08:10.602Z,3.20
2019-02-06T00:10:12.252Z,3.20
2019-02-06T00:12:14.017Z,3.20
2019-02-06T00:14:16.218Z,3.20
2019-02-06T00:16:17.936Z,3.20
2019-02-06T00:18:19.862Z,3.20
2019-02-06T00:20:21.584Z,3.20
2019-02-06T00:22:23.647Z,3.20
2019-02-06T00:24:25.298Z,3.20
2019-02-06T00:26:26.961Z,3.20
2019-02-06T00:28:28.897Z,3.20
2019-02-06T00:30:30.550Z,3.20
2019-02-06T00:32:32.205Z,3.20
2019-02-06T00:34:33.852Z,3.20
2019-02-06T00:36:35.508Z,3.20
2019-02-06T00:38:37.155Z,3.10
2019-02-06T00:40:39.404Z,3.10
2019-02-06T00:42:41.068Z,3.10
2019-02-06T00:44:42.713Z,3.00
2019-02-06T00:46:44.684Z,3.00
2019-02-06T00:48:46.881Z,3.00
2019-02-06T00:50:48.538Z,2.90
2019-02-06T00:52:50.207Z,2.90
2019-02-06T00:54:51.853Z,2.70
2019-02-06T00:56:53.512Z,2.70
2019-02-06T00:58:55.560Z,2.60
2019-02-06T01:00:57.209Z,2.50
2019-02-06T01:02:58.874Z,2.50
2019-02-06T01:05:00.533Z,2.50
2019-02-06T01:07:02.183Z,2.50
2019-02-06T01:09:07.013Z,2.40
2019-02-06T01:11:08.661Z,2.30
2019-02-06T01:13:10.326Z,2.20
2019-02-06T01:15:12.810Z,2.20
2019-02-06T01:17:14.468Z,2.20
2019-02-06T01:19:16.117Z,2.20
2019-02-06T01:21:17.768Z,2.20
2019-02-06T01:23:19.915Z,2.20
2019-02-06T01:25:21.570Z,2.10
2019-02-06T01:27:23.233Z,2.10
2019-02-06T01:29:24.892Z,2.10
2019-02-06T01:31:28.721Z,2.10
2019-02-06T01:33:30.380Z,2.10
2019-02-06T01:35:32.025Z,2.10
2019-02-06T01:37:33.679Z,2.10
2019-02-06T01:39:35.333Z,2.10
2019-02-06T01:41:36.985Z,2.10
2019-02-06T01:43:38.657Z,2.00
2019-02-06T01:45:40.417Z,2.00
2019-02-06T01:47:42.076Z,2.00
2019-02-06T01:49:44.858Z,2.00
2019-02-06T01:51:46.776Z,2.00
2019-02-06T01:53:48.432Z,2.00
2019-02-06T01:55:50.079Z,1.90
2019-02-06T01:57:52.672Z,1.90
2019-02-06T01:59:54.316Z,1.90
2019-02-06T02:01:56.067Z,1.90
2019-02-06T02:03:58.142Z,1.90
2019-02-06T02:06:02.300Z,1.90
2019-02-06T02:08:03.894Z,1.80
2019-02-06T02:10:06.076Z,1.80
2019-02-06T02:12:07.741Z,1.80
2019-02-06T02:14:09.415Z,1.80
2019-02-06T02:16:11.072Z,1.80
2019-02-06T02:18:12.732Z,1.70
2019-02-06T02:20:16.289Z,1.70
2019-02-06T02:22:17.951Z,1.60
2019-02-06T02:24:20.209Z,1.60
2019-02-06T02:26:21.860Z,1.60
2019-02-06T02:28:23.523Z,1.60
2019-02-06T02:30:32.829Z,1.60
2019-02-06T02:32:34.492Z,1.60
2019-02-06T02:34:36.152Z,1.60
2019-02-06T02:36:38.076Z,1.60
2019-02-06T02:38:39.745Z,1.60
2019-02-06T02:40:41.588Z,1.60
2019-02-06T02:42:43.758Z,1.60
2019-02-06T02:44:45.481Z,1.60
2019-02-06T02:46:47.418Z,1.60
2019-02-06T02:48:49.087Z,1.60
2019-02-06T02:50:50.735Z,1.50
2019-02-06T02:52:52.396Z,1.60
2019-02-06T02:54:54.381Z,1.60
2019-02-06T02:56:56.043Z,1.50
2019-02-06T02:58:57.711Z,1.50
2019-02-06T03:01:17.742Z,1.50
2019-02-06T03:03:35.914Z,1.50
2019-02-06T03:05:37.581Z,1.50
2019-02-06T03:07:39.246Z,1.50
2019-02-06T03:09:41.009Z,1.50
2019-02-06T03:11:42.677Z,1.50
2019-02-06T03:13:44.845Z,1.50
2019-02-06T03:15:46.788Z,1.40
2019-02-06T03:17:48.441Z,1.40
2019-02-06T03:19:50.117Z,1.40
2019-02-06T03:21:52.270Z,1.40
2019-02-06T03:23:53.942Z,1.40
2019-02-06T03:25:55.599Z,1.40
2019-02-06T03:27:57.261Z,1.40
2019-02-06T03:29:59.278Z,1.40
2019-02-06T03:32:00.929Z,1.40
2019-02-06T03:34:04.865Z,1.30
2019-02-06T03:36:06.181Z,1.30
2019-02-06T03:38:07.906Z,1.30
2019-02-06T03:40:10.301Z,1.30
2019-02-06T03:42:12.012Z,1.30
2019-02-06T03:44:13.674Z,1.20
2019-02-06T03:46:15.344Z,1.20
2019-02-06T03:48:17.432Z,1.20
2019-02-06T03:50:19.119Z,1.20
2019-02-06T03:52:20.764Z,1.20
2019-02-06T03:54:22.440Z,1.20
2019-02-06T03:56:24.586Z,1.20
2019-02-06T03:58:26.237Z,1.20
2019-02-06T04:00:27.893Z,1.20
2019-02-06T04:02:29.844Z,1.10
2019-02-06T04:04:31.504Z,1.10
2019-02-06T04:06:33.196Z,1.10
2019-02-06T04:08:35.149Z,1.20
2019-02-06T04:10:36.821Z,1.20
2019-02-06T04:12:38.481Z,1.20
2019-02-06T04:14:40.156Z,1.20
2019-02-06T04:16:41.807Z,1.20
2019-02-06T04:18:43.460Z,1.30
2019-02-06T04:20:45.128Z,1.30
2019-02-06T04:22:47.384Z,1.30
2019-02-06T04:24:51.707Z,1.30
2019-02-06T04:26:53.325Z,1.30
2019-02-06T04:28:54.972Z,1.30
2019-02-06T04:30:56.628Z,1.30
2019-02-06T04:32:58.291Z,1.30
2019-02-06T04:34:59.949Z,1.30
2019-02-06T04:37:06.753Z,1.30
2019-02-06T04:39:06.733Z,1.30
2019-02-06T04:41:08.652Z,1.30
2019-02-06T04:43:10.310Z,1.30
2019-02-06T04:45:12.837Z,1.30
2019-02-06T04:47:14.715Z,1.30
2019-02-06T04:49:16.664Z,1.30
2019-02-06T04:51:18.326Z,1.30
2019-02-06T04:53:19.988Z,1.30
2019-02-06T04:55:21.641Z,1.20
2019-02-06T04:57:23.858Z,1.20
2019-02-06T04:59:25.605Z,1.30
2019-02-06T05:01:27.573Z,1.20
2019-02-06T05:03:29.228Z,1.20
2019-02-06T05:05:30.934Z,1.20
2019-02-06T05:07:32.894Z,1.20
2019-02-06T05:09:34.553Z,1.20
2019-02-06T05:11:36.551Z,1.30
2019-02-06T05:13:38.208Z,1.30
2019-02-06T05:15:39.887Z,1.30
2019-02-06T05:17:41.546Z,1.30
2019-02-06T05:19:43.200Z,1.30
2019-02-06T05:21:45.263Z,1.30
2019-02-06T05:23:47.885Z,1.30
2019-02-06T05:25:49.547Z,1.20
2019-02-06T05:27:51.205Z,1.20
2019-02-06T05:29:52.964Z,1.30
2019-02-06T05:31:55.430Z,1.20
2019-02-06T05:33:57.382Z,1.20
2019-02-06T05:35:59.048Z,1.20
2019-02-06T05:38:00.709Z,1.30
2019-02-06T05:40:03.164Z,1.20
2019-02-06T05:42:04.828Z,1.30
2019-02-06T05:44:06.493Z,1.30
2019-02-06T05:46:08.166Z,1.40
2019-02-06T05:48:09.822Z,1.40
2019-02-06T05:50:12.568Z,1.40
2019-02-06T05:52:14.229Z,1.50
2019-02-06T05:54:15.876Z,1.50
2019-02-06T05:56:17.553Z,1.50
2019-02-06T05:58:19.453Z,1.60
2019-02-06T06:00:25.676Z,1.60
2019-02-06T06:02:27.349Z,1.60
2019-02-06T06:04:29.001Z,1.60
2019-02-06T06:06:31.278Z,1.60
2019-02-06T06:08:32.941Z,1.60
2019-02-06T06:10:34.889Z,1.60
2019-02-06T06:12:36.548Z,1.60
2019-02-06T06:14:38.813Z,1.70
2019-02-06T06:16:40.477Z,1.70
2019-02-06T06:18:42.144Z,1.80
2019-02-06T06:20:44.135Z,1.80
2019-02-06T06:22:46.296Z,1.80
2019-02-06T06:24:47.957Z,1.90
2019-02-06T06:26:49.625Z,1.90
2019-02-06T06:28:51.287Z,1.90
2019-02-06T06:30:52.941Z,2.00
2019-02-06T06:32:54.616Z,2.00
2019-02-06T06:34:56.582Z,2.00
2019-02-06T06:36:58.264Z,2.10
2019-02-06T06:39:00.018Z,2.10
2019-02-06T06:41:01.774Z,2.10
2019-02-06T06:43:03.778Z,2.10
2019-02-06T06:45:07.585Z,2.10
2019-02-06T06:47:09.257Z,2.00
2019-02-06T06:49:11.409Z,2.00
2019-02-06T06:51:13.065Z,2.00
2019-02-06T06:53:14.721Z,2.00
2019-02-06T06:55:16.977Z,2.00
2019-02-06T06:57:18.954Z,2.00
2019-02-06T06:59:20.602Z,2.00
2019-02-06T07:01:22.249Z,2.00
2019-02-06T07:03:23.921Z,2.00
2019-02-06T07:05:25.602Z,2.00
2019-02-06T07:07:27.344Z,2.00
2019-02-06T07:09:29.239Z,2.00
2019-02-06T07:11:30.889Z,2.00
2019-02-06T07:13:32.560Z,2.00
2019-02-06T07:15:34.231Z,2.00
2019-02-06T07:17:35.897Z,2.10
2019-02-06T07:19:37.545Z,2.10
2019-02-06T07:21:39.183Z,2.10
2019-02-06T07:23:41.351Z,2.20
2019-02-06T07:25:42.987Z,2.20
2019-02-06T07:27:44.650Z,2.30
2019-02-06T07:29:46.302Z,2.30
2019-02-06T07:31:48.264Z,2.40
2019-02-06T07:33:50.017Z,2.40
2019-02-06T07:35:51.709Z,2.40
2019-02-06T07:37:53.377Z,2.40
2019-02-06T07:39:55.042Z,2.50
2019-02-06T07:41:56.693Z,2.50
2019-02-06T07:43:58.357Z,2.60
2019-02-06T07:46:00.009Z,2.60
2019-02-06T07:48:01.668Z,2.70
2019-02-06T07:50:04.361Z,3.00
2019-02-06T07:52:06.026Z,3.20
2019-02-06T07:54:07.697Z,3.30
2019-02-06T07:56:09.349Z,3.30
2019-02-06T07:58:11.284Z,3.20
2019-02-06T08:00:12.933Z,3.20
2019-02-06T08:02:14.593Z,3.10
2019-02-06T08:04:16.252Z,3.10
2019-02-06T08:06:18.209Z,3.10
2019-02-06T08:08:19.859Z,3.00
2019-02-06T08:10:25.061Z,3.00
2019-02-06T08:12:26.796Z,3.10
2019-02-06T08:14:28.450Z,3.10
2019-02-06T08:16:30.120Z,3.10
2019-02-06T08:18:31.755Z,3.20
2019-02-06T08:20:33.421Z,3.20
2019-02-06T08:22:35.067Z,3.20
2019-02-06T08:24:36.713Z,3.20
2019-02-06T08:26:38.477Z,3.20
2019-02-06T08:28:40.332Z,3.20
2019-02-06T08:30:41.998Z,3.20
2019-02-06T08:32:43.649Z,3.30
2019-02-06T08:34:45.285Z,3.30
2019-02-06T08:36:46.943Z,3.40
2019-02-06T08:38:49.547Z,3.40
2019-02-06T08:40:52.153Z,3.50
2019-02-06T08:42:53.799Z,3.50
2019-02-06T08:44:55.448Z,3.60
2019-02-06T08:46:57.104Z,3.60
2019-02-06T08:48:58.761Z,3.60
2019-02-06T08:51:00.424Z,3.60
2019-02-06T08:53:02.065Z,3.70
2019-02-06T08:55:04.044Z,3.70
2019-02-06T08:57:05.708Z,3.80
2019-02-06T08:59:07.357Z,3.80
2019-02-06T09:01:09.029Z,3.90
2019-02-06T09:03:10.686Z,3.90
2019-02-06T09:05:12.345Z,4.00
2019-02-06T09:07:14.024Z,4.00
2019-02-06T09:09:15.668Z,4.10
2019-02-06T09:11:17.316Z,4.20
2019-02-06T09:13:18.970Z,4.20
2019-02-06T09:15:21.120Z,4.30
2019-02-06T09:17:22.796Z,4.30
2019-02-06T09:19:24.453Z,4.40
2019-02-06T09:21:26.104Z,4.40
2019-02-06T09:23:28.056Z,4.50
2019-02-06T09:25:29.697Z,4.50
2019-02-06T09:27:31.380Z,4.50
2019-02-06T09:29:33.096Z,4.60
2019-02-06T09:31:34.753Z,4.60
2019-02-06T09:33:36.408Z,4.70
2019-02-06T09:35:38.057Z,4.70
2019-02-06T09:37:40.049Z,4.70
2019-02-06T09:39:41.696Z,4.80
2019-02-06T09:41:43.357Z,4.80
2019-02-06T09:43:45.309Z,4.90
2019-02-06T09:45:46.952Z,4.90
2019-02-06T09:47:48.614Z,5.00
2019-02-06T09:49:50.569Z,5.00
2019-02-06T09:51:52.220Z,5.10
2019-02-06T09:53:53.877Z,5.20
2019-02-06T09:55:55.530Z,5.20
2019-02-06T09:57:57.694Z,5.30
2019-02-06T09:59:59.344Z,5.30
2019-02-06T10:02:00.993Z,5.40
2019-02-06T10:04:02.892Z,5.40
2019-02-06T10:06:04.858Z,5.40
2019-02-06T10:08:06.517Z,5.40
2019-02-06T10:10:14.473Z,5.50
2019-02-06T10:12:16.136Z,5.50
2019-02-06T10:14:17.782Z,5.50
2019-02-06T10:16:20.258Z,5.50
2019-02-06T10:18:22.789Z,5.60
2019-02-06T10:20:27.028Z,5.60
2019-02-06T10:22:28.684Z,5.60
2019-02-06T10:24:30.742Z,5.70
2019-02-06T10:26:32.397Z,5.80
2019-02-06T10:28:34.057Z,5.80
2019-02-06T10:30:46.821Z,5.80
2019-02-06T10:32:48.476Z,5.80
2019-02-06T10:34:50.726Z,6.00
2019-02-06T10:36:52.429Z,5.90
2019-02-06T10:38:54.093Z,6.10
2019-02-06T10:40:55.732Z,6.30
2019-02-06T10:42:57.415Z,6.40
2019-02-06T10:44:59.065Z,6.50
2019-02-06T10:47:01.293Z,6.80
2019-02-06T10:49:02.957Z,6.80
2019-02-06T10:51:04.812Z,6.90
2019-02-06T10:53:06.508Z,7.00
2019-02-06T10:55:08.158Z,7.00
2019-02-06T10:57:10.329Z,6.90
2019-02-06T10:59:12.073Z,6.80
2019-02-06T11:01:13.715Z,6.70
2019-02-06T11:03:15.629Z,6.90
2019-02-06T11:05:17.383Z,6.80
2019-02-06T11:07:19.336Z,6.80
2019-02-06T11:09:21.605Z,6.80
2019-02-06T11:11:23.532Z,6.80
2019-02-06T11:13:25.271Z,6.90
2019-02-06T11:15:27.072Z,7.00
2019-02-06T11:17:29.120Z,7.10
2019-02-06T11:19:30.777Z,7.10
2019-02-06T11:21:32.428Z,7.10
2019-02-06T11:23:34.402Z,7.20
2019-02-06T11:25:36.052Z,7.20
2019-02-06T11:27:37.697Z,7.10
2019-02-06T11:29:39.361Z,7.30
2019-02-06T11:31:41.012Z,7.30
2019-02-06T11:33:42.668Z,7.40
2019-02-06T11:35:44.317Z,7.60
2019-02-06T11:37:45.987Z,7.50
2019-02-06T11:39:57.485Z,7.70
2019-02-06T11:41:51.201Z,7.60
2019-02-06T11:43:53.357Z,7.60
2019-02-06T11:45:55.004Z,7.60
2019-02-06T11:47:56.659Z,7.70
2019-02-06T11:49:59.868Z,7.60
2019-02-06T11:52:01.525Z,7.70
2019-02-06T11:54:03.609Z,7.80
2019-02-06T11:56:05.254Z,7.90
2019-02-06T11:58:06.917Z,7.70
2019-02-06T12:00:11.824Z,7.80
2019-02-06T12:02:14.980Z,7.70
2019-02-06T12:04:16.962Z,7.70
2019-02-06T12:06:18.628Z,7.70
2019-02-06T12:08:20.272Z,7.60
2019-02-06T12:10:22.840Z,7.60
2019-02-06T12:12:24.815Z,7.60
2019-02-06T12:14:26.468Z,7.70
2019-02-06T12:16:28.181Z,7.80
2019-02-06T12:18:30.284Z,7.70
2019-02-06T12:20:31.932Z,7.60
2019-02-06T12:22:33.584Z,7.60
2019-02-06T12:24:35.261Z,7.50
2019-02-06T12:26:36.904Z,7.50
2019-02-06T12:28:38.557Z,7.40
2019-02-06T12:30:40.238Z,7.40
2019-02-06T12:32:52.029Z,7.30
2019-02-06T12:34:45.469Z,7.30
2019-02-06T12:36:47.112Z,7.30
2019-02-06T12:38:53.592Z,7.30
2019-02-06T12:40:52.335Z,7.30
2019-02-06T12:42:54.075Z,7.30
2019-02-06T12:44:58.853Z,7.20
2019-02-06T12:46:59.566Z,7.20
2019-02-06T12:49:01.195Z,7.30
2019-02-06T12:51:05.617Z,7.20
2019-02-06T12:53:07.261Z,7.20
2019-02-06T12:55:12.404Z,7.20
2019-02-06T12:57:14.054Z,7.30
2019-02-06T12:59:15.709Z,7.30
2019-02-06T13:01:17.581Z,7.30
2019-02-06T13:03:19.231Z,7.30
2019-02-06T13:05:20.910Z,7.30
2019-02-06T13:07:22.569Z,7.30
2019-02-06T13:09:24.503Z,7.30
2019-02-06T13:11:26.159Z,7.30
2019-02-06T13:13:27.824Z,7.30
2019-02-06T13:15:29.502Z,7.30
2019-02-06T13:17:31.145Z,7.30
2019-02-06T13:19:32.796Z,7.30
2019-02-06T13:21:34.472Z,7.30
2019-02-06T13:23:36.125Z,7.40
2019-02-06T13:25:37.788Z,7.40
2019-02-06T13:27:39.431Z,7.40
2019-02-06T13:29:41.085Z,7.30
2019-02-06T13:31:42.751Z,7.30
2019-02-06T13:33:44.396Z,7.30
2019-02-06T13:35:46.061Z,7.30
2019-02-06T13:37:47.707Z,7.30
2019-02-06T13:39:49.362Z,7.40
2019-02-06T13:41:51.021Z,7.40
2019-02-06T13:43:53.160Z,7.50
2019-02-06T13:45:54.822Z,7.50
2019-02-06T13:47:56.677Z,7.50
2019-02-06T13:49:58.339Z,7.50
2019-02-06T13:52:00.080Z,7.50
2019-02-06T13:54:01.728Z,7.50
2019-02-06T13:56:04.041Z,7.60
2019-02-06T13:58:05.693Z,7.60
2019-02-06T14:00:11.381Z,7.60
2019-02-06T14:02:13.345Z,7.60
2019-02-06T14:04:15.000Z,7.60
2019-02-06T14:06:16.769Z,7.60
2019-02-06T14:08:18.412Z,7.50
2019-02-06T14:10:21.504Z,7.50
2019-02-06T14:12:23.165Z,7.50
2019-02-06T14:14:26.832Z,7.40
2019-02-06T14:16:28.382Z,7.40
2019-02-06T14:18:30.033Z,7.40
2019-02-06T14:20:31.688Z,7.40
2019-02-06T14:22:33.345Z,7.40
2019-02-06T14:24:45.553Z,7.40
2019-02-06T14:27:21.612Z,7.40
2019-02-06T14:30:04.895Z,7.40
2019-02-06T14:32:46.477Z,7.50
2019-02-06T14:35:27.939Z,7.50
2019-02-06T14:38:14.413Z,7.50
2019-02-06T14:40:43.101Z,7.50
2019-02-06T14:43:45.040Z,7.50
2019-02-06T14:46:21.732Z,7.50
2019-02-06T14:48:55.648Z,7.50
2019-02-06T14:51:29.169Z,7.50
2019-02-06T14:54:13.286Z,7.50
2019-02-06T14:56:58.849Z,7.50
2019-02-06T14:59:39.197Z,7.50
2019-02-06T15:01:49.189Z,7.40
2019-02-06T15:04:24.421Z,7.40
2019-02-06T15:07:06.212Z,7.40
2019-02-06T15:09:45.913Z,7.40
2019-02-06T15:12:10.544Z,7.40
2019-02-06T15:14:45.981Z,7.50
2019-02-06T15:17:19.902Z,7.40
2019-02-06T15:19:36.006Z,7.40
2019-02-06T15:21:57.091Z,7.40
2019-02-06T15:24:14.317Z,7.40
2019-02-06T15:26:40.601Z,7.30
2019-02-06T15:29:00.417Z,7.30
2019-02-06T15:31:50.189Z,7.40
2019-02-06T15:34:25.951Z,7.30
2019-02-06T15:37:02.816Z,7.30
2019-02-06T15:39:24.660Z,7.30
2019-02-06T15:42:06.402Z,7.20
2019-02-06T15:44:38.327Z,7.30
2019-02-06T15:47:06.781Z,7.20
2019-02-06T15:49:40.828Z,7.20
2019-02-06T15:52:23.700Z,7.20
2019-02-06T15:55:08.891Z,7.20
2019-02-06T15:57:39.570Z,7.10
2019-02-06T16:00:32.762Z,7.00
2019-02-06T16:03:12.320Z,7.00
2019-02-06T16:06:19.073Z,7.00
2019-02-06T16:09:02.593Z,7.00
2019-02-06T16:11:27.117Z,6.90
2019-02-06T16:13:38.065Z,6.90
2019-02-06T16:15:49.725Z,6.90
2019-02-06T16:18:26.129Z,6.90
2019-02-06T16:21:07.828Z,6.80
2019-02-06T16:23:39.681Z,6.80
2019-02-06T16:25:59.661Z,6.80
2019-02-06T16:28:37.261Z,6.80
2019-02-06T16:30:54.079Z,6.70
2019-02-06T16:33:41.006Z,6.70
2019-02-06T16:35:54.633Z,6.70
2019-02-06T16:38:24.471Z,6.60
2019-02-06T16:40:58.035Z,6.60
2019-02-06T16:43:41.032Z,6.60
2019-02-06T16:46:07.689Z,6.60
2019-02-06T16:48:34.981Z,6.50
2019-02-06T16:51:13.457Z,6.50
2019-02-06T16:53:42.028Z,6.50
2019-02-06T16:56:38.134Z,6.50
2019-02-06T16:59:05.884Z,6.50
2019-02-06T17:01:31.428Z,6.60
2019-02-06T17:03:58.169Z,6.60
2019-02-06T17:06:17.188Z,6.60
2019-02-06T17:08:54.828Z,6.60
2019-02-06T17:11:52.583Z,6.60
2019-02-06T17:14:04.836Z,6.50
2019-02-06T17:16:27.233Z,6.50
2019-02-06T17:18:47.850Z,6.50
2019-02-06T17:21:12.023Z,6.50
2019-02-06T17:23:25.640Z,6.50
2019-02-06T17:25:42.761Z,6.50
2019-02-06T17:28:27.615Z,6.50
2019-02-06T17:30:55.289Z,6.40
2019-02-06T17:33:34.116Z,6.40
2019-02-06T17:36:04.228Z,6.40
2019-02-06T17:38:36.717Z,6.40
2019-02-06T17:41:19.596Z,6.40
2019-02-06T17:43:49.504Z,6.40
2019-02-06T17:46:49.085Z,6.40
2019-02-06T17:49:21.506Z,6.50
2019-02-06T17:52:07.421Z,6.50
2019-02-06T17:54:33.536Z,6.50
2019-02-06T17:56:35.197Z,6.50
2019-02-06T17:58:40.107Z,6.40
2019-02-06T18:00:54.660Z,6.40
2019-02-06T18:02:56.716Z,6.40
2019-02-06T18:04:58.373Z,6.30
2019-02-06T18:07:00.319Z,6.30
2019-02-06T18:09:03.724Z,6.30
2019-02-06T18:11:05.613Z,6.30
2019-02-06T18:13:07.262Z,6.30
2019-02-06T18:15:09.275Z,6.30
2019-02-06T18:17:10.942Z,6.30
2019-02-06T18:19:12.848Z,6.30
2019-02-06T18:21:14.507Z,6.20
2019-02-06T18:23:16.183Z,6.20
2019-02-06T18:25:17.917Z,6.20
2019-02-06T18:27:19.580Z,6.20
2019-02-06T18:29:21.220Z,6.20
2019-02-06T18:31:22.880Z,6.20
2019-02-06T18:33:24.532Z,6.20
2019-02-06T18:35:26.310Z,6.20
2019-02-06T18:37:28.261Z,6.20
2019-02-06T18:39:29.913Z,6.20
2019-02-06T18:41:31.575Z,6.20
2019-02-06T18:43:33.937Z,6.20
2019-02-06T18:45:35.580Z,6.10
2019-02-06T18:47:37.270Z,6.10
2019-02-06T18:49:39.220Z,6.00
2019-02-06T18:51:41.414Z,6.00
2019-02-06T18:53:43.165Z,6.00
2019-02-06T18:55:44.899Z,6.10
2019-02-06T18:57:46.564Z,6.00
2019-02-06T18:59:49.768Z,6.00
2019-02-06T19:01:51.494Z,6.00
2019-02-06T19:03:53.274Z,6.00
2019-02-06T19:05:55.244Z,6.00
2019-02-06T19:07:57.245Z,6.00
2019-02-06T19:09:59.236Z,5.90
2019-02-06T19:12:01.128Z,5.90
2019-02-06T19:14:03.460Z,5.90
2019-02-06T19:16:05.109Z,5.90
2019-02-06T19:18:07.766Z,5.90
2019-02-06T19:20:10.537Z,5.90
2019-02-06T19:22:12.200Z,6.00
2019-02-06T19:24:13.851Z,5.90
2019-02-06T19:26:15.496Z,6.00
2019-02-06T19:28:17.288Z,6.10
2019-02-06T19:30:21.873Z,6.10
2019-02-06T19:32:23.941Z,6.10
2019-02-06T19:34:25.594Z,6.10
2019-02-06T19:36:27.342Z,6.10
2019-02-06T19:38:29.108Z,6.10
2019-02-06T19:40:31.261Z,6.10
2019-02-06T19:42:32.926Z,6.00
2019-02-06T19:44:34.881Z,6.00
2019-02-06T19:46:36.524Z,6.00
2019-02-06T19:48:38.692Z,6.00
2019-02-06T19:50:40.570Z,6.00
2019-02-06T19:52:42.341Z,6.00
2019-02-06T19:54:46.163Z,6.00
2019-02-06T19:56:47.648Z,6.00
2019-02-06T19:58:49.313Z,6.00
2019-02-06T20:00:51.267Z,6.00
2019-02-06T20:02:52.962Z,6.00
2019-02-06T20:04:55.302Z,6.00
2019-02-06T20:06:57.066Z,6.00
2019-02-06T20:09:06.860Z,6.00
2019-02-06T20:11:08.604Z,6.00
2019-02-06T20:13:14.391Z,6.10
2019-02-06T20:15:14.117Z,6.00
2019-02-06T20:17:15.869Z,6.00
2019-02-06T20:19:17.535Z,6.00
2019-02-06T20:21:19.190Z,6.10
2019-02-06T20:23:20.848Z,6.10
2019-02-06T20:25:22.537Z,6.20
2019-02-06T20:27:24.189Z,6.10
2019-02-06T20:29:25.952Z,6.10
2019-02-06T20:31:27.721Z,6.10
2019-02-06T20:33:29.503Z,6.10
2019-02-06T20:35:31.234Z,6.10
2019-02-06T20:37:33.108Z,6.10
2019-02-06T20:39:34.869Z,6.10
2019-02-06T20:41:36.621Z,6.20
2019-02-06T20:43:38.276Z,6.20
2019-02-06T20:45:39.924Z,6.20
2019-02-06T20:47:41.576Z,6.20
2019-02-06T20:49:43.249Z,6.10
2019-02-06T20:51:44.926Z,6.10
2019-02-06T20:53:46.584Z,6.10
2019-02-06T20:55:48.340Z,6.10
2019-02-06T20:57:50.097Z,6.00
2019-02-06T20:59:52.027Z,6.00
2019-02-06T21:01:53.681Z,6.00
2019-02-06T21:03:55.348Z,6.00
2019-02-06T21:05:57.064Z,6.00
2019-02-06T21:07:58.812Z,6.00
2019-02-06T21:10:00.481Z,6.00
2019-02-06T21:12:02.277Z,6.00
2019-02-06T21:14:04.003Z,6.00
2019-02-06T21:16:05.664Z,6.00
2019-02-06T21:18:07.318Z,6.00
2019-02-06T21:20:11.244Z,6.00
2019-02-06T21:22:12.879Z,5.90
2019-02-06T21:24:14.539Z,6.00
2019-02-06T21:26:16.197Z,6.00
2019-02-06T21:28:18.340Z,5.90
2019-02-06T21:30:27.884Z,6.00
2019-02-06T21:32:29.529Z,5.90
2019-02-06T21:34:31.291Z,5.90
2019-02-06T21:36:32.933Z,5.90
2019-02-06T21:38:34.684Z,5.90
2019-02-06T21:40:36.350Z,6.00
2019-02-06T21:42:37.992Z,6.10
2019-02-06T21:44:39.654Z,6.00
2019-02-06T21:46:43.287Z,6.00
2019-02-06T21:48:44.944Z,6.00
2019-02-06T21:50:46.734Z,6.00
2019-02-06T21:52:48.376Z,6.00
2019-02-06T21:54:50.334Z,6.00
2019-02-06T21:56:51.998Z,6.00
2019-02-06T21:58:53.753Z,6.00
2019-02-06T22:00:55.401Z,5.90
2019-02-06T22:02:57.057Z,5.90
2019-02-06T22:04:58.724Z,5.90
2019-02-06T22:07:00.417Z,5.90
2019-02-06T22:09:02.866Z,5.90
2019-02-06T22:11:04.530Z,5.90
2019-02-06T22:13:06.683Z,5.90
2019-02-06T22:15:11.609Z,5.90
2019-02-06T22:17:13.576Z,5.90
2019-02-06T22:19:15.248Z,5.80
2019-02-06T22:21:16.892Z,5.80
2019-02-06T22:23:18.545Z,5.80
2019-02-06T22:25:20.544Z,5.80
2019-02-06T22:27:22.201Z,5.80
2019-02-06T22:29:23.868Z,5.80
2019-02-06T22:31:25.616Z,5.80
2019-02-06T22:33:27.253Z,5.90
2019-02-06T22:35:28.916Z,5.80
2019-02-06T22:37:30.653Z,5.90
2019-02-06T22:39:32.808Z,5.80
2019-02-06T22:41:34.459Z,5.80
2019-02-06T22:43:36.114Z,5.80
2019-02-06T22:45:37.764Z,5.80
2019-02-06T22:47:39.413Z,5.80
2019-02-06T22:49:41.089Z,5.80
2019-02-06T22:51:42.743Z,5.80
2019-02-06T22:53:44.389Z,5.70
2019-02-06T22:55:47.522Z,5.70
2019-02-06T22:57:49.164Z,5.70
2019-02-06T22:59:50.828Z,5.70
2019-02-06T23:01:55.223Z,5.70
2019-02-06T23:03:56.864Z,5.70
2019-02-06T23:05:58.864Z,5.70
2019-02-06T23:08:00.621Z,5.70
2019-02-06T23:10:02.457Z,5.60
2019-02-06T23:12:04.106Z,5.60
2019-02-06T23:14:16.927Z,5.60
2019-02-06T23:16:09.632Z,5.70
2019-02-06T23:18:11.279Z,5.60
2019-02-06T23:20:12.946Z,5.60
2019-02-06T23:22:14.825Z,5.70
2019-02-06T23:24:17.060Z,5.70
2019-02-06T23:26:19.121Z,5.70
2019-02-06T23:28:20.765Z,5.70
2019-02-06T23:30:22.425Z,5.70
2019-02-06T23:32:24.074Z,5.70
2019-02-06T23:34:25.731Z,5.70
2019-02-06T23:36:27.386Z,5.70
2019-02-06T23:38:29.045Z,5.60
2019-02-06T23:40:30.938Z,5.60
2019-02-06T23:42:32.589Z,5.60
2019-02-06T23:44:34.578Z,5.60
2019-02-06T23:46:36.232Z,5.60
2019-02-06T23:48:37.876Z,5.60
2019-02-06T23:50:39.824Z,5.60
2019-02-06T23:52:41.476Z,5.60
2019-02-06T23:54:43.128Z,5.50
2019-02-06T23:56:44.865Z,5.50
2019-02-06T23:58:46.736Z,5.50
